Time;durP1;ratioP1;P1;durP2;ratioP2;P2;SDS_P1;SDS_P2;PMS_P1;PMS_P2;Temp;Humidity;BMP_temperature;BMP_pressure;BME280_temperature;BME280_humidity;BME280_pressure;Samples;Min_cycle;Max_cycle;Signal;HPM_P1;HPM_P2
2022/05/28 00:02:17;;;;;;;0.70;0.55;;;;;;;16.06;58.61;100215.31;5590172;31;34293;-66
2022/05/28 00:05:20;;;;;;;2.33;0.50;;;;;;;16.12;58.12;100215.53;5589323;31;34641;-67
2022/05/28 00:08:24;;;;;;;0.60;0.40;;;;;;;16.13;58.18;100228.69;5589990;31;34347;-66
2022/05/28 00:11:37;;;;;;;3.05;0.50;;;;;;;16.08;58.25;100221.28;5589309;31;34579;-66
2022/05/28 00:14:40;;;;;;;0.55;0.30;;;;;;;16.06;58.76;100223.34;5589963;31;35226;-66
2022/05/28 00:17:42;;;;;;;1.35;0.50;;;;;;;16.11;57.85;100219.22;5589911;31;34038;-67
2022/05/28 00:20:45;;;;;;;0.98;0.70;;;;;;;16.08;57.90;100220.44;5590025;31;34168;-66
2022/05/28 00:23:49;;;;;;;0.70;0.40;;;;;;;16.06;57.82;100209.16;5589798;31;34012;-66
2022/05/28 00:26:51;;;;;;;0.60;0.50;;;;;;;16.18;57.78;100212.81;5589770;31;35194;-67
2022/05/28 00:29:54;;;;;;;0.55;0.45;;;;;;;16.07;58.25;100211.59;5589800;31;34586;-66
2022/05/28 00:32:56;;;;;;;0.50;0.40;;;;;;;16.13;58.67;100225.19;5589648;31;33957;-66
2022/05/28 00:36:00;;;;;;;0.90;0.60;;;;;;;16.09;59.60;100212.22;5589678;31;35155;-66
2022/05/28 00:39:03;;;;;;;0.85;0.43;;;;;;;16.00;60.98;100218.00;5589658;31;34053;-67
2022/05/28 00:42:06;;;;;;;0.82;0.37;;;;;;;15.92;60.66;100216.37;5589564;31;35302;-65
2022/05/28 00:45:10;;;;;;;0.60;0.45;;;;;;;15.95;60.23;100229.31;5589948;31;33898;-66
2022/05/28 00:48:16;;;;;;;0.50;0.50;;;;;;;15.96;60.05;100239.00;5588030;31;32525;-66
2022/05/28 00:51:24;;;;;;;0.70;0.50;;;;;;;15.74;60.19;100236.72;5589491;31;34150;-66
2022/05/28 00:54:35;;;;;;;1.87;0.40;;;;;;;15.77;59.85;100234.47;5589913;31;33936;-66
2022/05/28 00:57:40;;;;;;;0.70;0.55;;;;;;;15.84;59.82;100237.94;5589605;31;34429;-67
2022/05/28 01:00:43;;;;;;;1.02;0.60;;;;;;;15.84;58.45;100231.78;5589543;31;34361;-66
2022/05/28 01:03:59;;;;;;;1.35;0.62;;;;;;;15.70;58.70;100238.97;5589421;31;34001;-65
2022/05/28 01:07:22;;;;;;;1.52;0.45;;;;;;;15.76;58.60;100229.31;5589411;31;34731;-68
2022/05/28 01:10:37;;;;;;;1.12;0.55;;;;;;;15.73;58.90;100221.72;5589668;31;33848;-66
2022/05/28 01:14:03;;;;;;;1.30;0.57;;;;;;;15.62;59.07;100220.47;5589652;31;35274;-67
2022/05/28 01:17:17;;;;;;;0.98;0.50;;;;;;;15.63;59.13;100212.25;5589387;31;34522;-66
2022/05/28 01:20:44;;;;;;;1.05;0.52;;;;;;;15.56;59.27;100203.37;5589122;31;34317;-66
2022/05/28 01:23:57;;;;;;;0.55;0.50;;;;;;;15.50;59.69;100201.47;5589042;31;34234;-68
2022/05/28 01:27:04;;;;;;;0.60;0.40;;;;;;;15.53;60.52;100200.31;5588986;31;33996;-66
2022/05/28 01:30:10;;;;;;;1.10;0.50;;;;;;;15.45;60.45;100187.91;5589166;31;33853;-66
2022/05/28 01:33:16;;;;;;;1.05;0.60;;;;;;;15.49;60.41;100189.13;5589152;31;34546;-66
2022/05/28 01:36:19;;;;;;;3.40;0.80;;;;;;;15.38;61.18;100186.25;5589006;31;35306;-65
2022/05/28 01:39:23;;;;;;;0.60;0.50;;;;;;;15.35;61.68;100171.44;5588847;31;33894;-66
2022/05/28 01:42:27;;;;;;;1.12;0.52;;;;;;;15.31;61.92;100162.19;5588933;31;34251;-65
2022/05/28 01:45:32;;;;;;;0.90;0.52;;;;;;;15.20;62.57;100166.28;5588809;31;35226;-67
2022/05/28 01:48:37;;;;;;;0.85;0.55;;;;;;;15.28;63.10;100178.63;5588837;31;34192;-67
2022/05/28 01:51:46;;;;;;;1.75;0.70;;;;;;;15.13;63.50;100181.47;5588756;31;33938;-66
2022/05/28 01:54:51;;;;;;;1.10;0.65;;;;;;;15.14;63.75;100180.47;5588564;31;34753;-65
2022/05/28 01:57:54;;;;;;;2.03;0.60;;;;;;;15.15;64.02;100165.25;5588615;31;33931;-65
2022/05/28 02:00:59;;;;;;;2.17;0.80;;;;;;;15.12;64.16;100171.81;5590975;31;33937;-66
2022/05/28 02:04:06;;;;;;;0.98;0.70;;;;;;;14.97;65.04;100197.88;5590673;31;34349;-65
2022/05/28 02:07:09;;;;;;;1.62;0.60;;;;;;;15.05;64.91;100195.03;5591030;31;34063;-65
2022/05/28 02:10:16;;;;;;;1.23;0.60;;;;;;;15.06;64.99;100203.84;5590982;31;34077;-66
2022/05/28 02:13:31;;;;;;;1.05;0.60;;;;;;;15.03;65.26;100204.25;5590321;31;32657;-65
2022/05/28 02:16:54;;;;;;;1.75;0.52;;;;;;;15.02;65.46;100208.78;5590937;31;34628;-67
2022/05/28 02:20:15;;;;;;;1.00;0.60;;;;;;;15.04;66.01;100208.59;5591214;31;34635;-66
2022/05/28 02:23:53;;;;;;;0.90;0.60;;;;;;;14.96;66.15;100187.41;5590923;31;33969;-66
2022/05/28 02:27:02;;;;;;;2.50;0.95;;;;;;;14.91;66.64;100195.19;5590652;31;34231;-65
2022/05/28 02:30:06;;;;;;;0.70;0.65;;;;;;;15.05;66.35;100226.28;5585648;31;165685;-67
2022/05/28 02:33:08;;;;;;;2.65;0.60;;;;;;;14.99;66.87;100209.19;5590544;31;34034;-66
2022/05/28 02:36:13;;;;;;;0.60;0.57;;;;;;;14.94;66.82;100213.47;5590817;31;33888;-66
2022/05/28 02:39:16;;;;;;;2.10;0.80;;;;;;;14.86;67.16;100208.31;5590696;31;33931;-66
2022/05/28 02:42:19;;;;;;;0.90;0.65;;;;;;;14.88;67.31;100220.44;5589936;31;34508;-67
2022/05/28 02:45:22;;;;;;;0.70;0.60;;;;;;;14.85;67.82;100220.84;5589895;31;32747;-67
2022/05/28 02:48:25;;;;;;;0.70;0.70;;;;;;;14.91;67.67;100238.72;5590772;31;34619;-65
2022/05/28 02:51:27;;;;;;;1.95;0.73;;;;;;;14.77;67.85;100240.53;5590965;31;33951;-67
2022/05/28 02:54:31;;;;;;;1.45;0.80;;;;;;;14.90;67.75;100241.63;5590559;31;34582;-67
2022/05/28 02:57:34;;;;;;;0.93;0.65;;;;;;;14.81;67.70;100240.16;5589673;31;35510;-66
2022/05/28 03:00:36;;;;;;;1.10;0.65;;;;;;;14.98;67.36;100236.09;5589819;31;32503;-66
2022/05/28 03:03:39;;;;;;;1.42;0.80;;;;;;;14.93;67.65;100251.91;5589713;31;35249;-66
2022/05/28 03:06:42;;;;;;;0.80;0.70;;;;;;;14.84;67.43;100243.22;5590809;31;33921;-65
2022/05/28 03:09:44;;;;;;;1.37;0.95;;;;;;;14.77;67.60;100237.84;5590443;31;35306;-66
2022/05/28 03:12:47;;;;;;;2.08;0.90;;;;;;;14.78;68.24;100230.66;5589810;31;33903;-67
2022/05/28 03:15:50;;;;;;;2.47;0.80;;;;;;;14.90;68.20;100231.75;5590409;31;34010;-66
2022/05/28 03:18:53;;;;;;;1.73;0.80;;;;;;;14.84;68.00;100211.19;5590210;31;34047;-65
2022/05/28 03:21:55;;;;;;;2.55;0.73;;;;;;;14.79;68.20;100211.78;5590335;31;34652;-67
2022/05/28 03:24:58;;;;;;;1.80;0.70;;;;;;;14.91;68.08;100211.22;5590629;31;34379;-66
2022/05/28 03:28:01;;;;;;;1.77;0.88;;;;;;;14.68;68.44;100214.19;5589218;31;34151;-67
2022/05/28 03:31:03;;;;;;;1.15;0.80;;;;;;;14.67;68.86;100212.53;5590118;31;34438;-66
2022/05/28 03:34:06;;;;;;;0.95;0.70;;;;;;;14.77;68.49;100221.81;5589535;31;33991;-66
2022/05/28 03:37:09;;;;;;;1.50;0.70;;;;;;;14.67;69.17;100229.38;5590065;31;34178;-65
2022/05/28 03:40:12;;;;;;;1.42;0.88;;;;;;;14.58;69.44;100217.22;5590128;31;34472;-66
2022/05/28 03:43:15;;;;;;;1.00;0.77;;;;;;;14.86;68.45;100217.16;5590146;31;33887;-66
2022/05/28 03:46:30;;;;;;;1.87;0.73;;;;;;;14.70;69.28;100214.81;5590156;31;34030;-66
2022/05/28 03:49:36;;;;;;;5.53;0.98;;;;;;;14.67;69.59;100216.03;5589371;31;33914;-66
2022/05/28 03:52:39;;;;;;;1.08;0.70;;;;;;;14.81;69.41;100219.59;5590113;31;33900;-65
2022/05/28 03:55:43;;;;;;;1.73;1.02;;;;;;;14.82;68.97;100223.06;5590021;31;33921;-67
2022/05/28 03:58:45;;;;;;;2.40;0.80;;;;;;;14.82;69.35;100225.75;5589951;31;34168;-67
2022/05/28 04:01:48;;;;;;;1.42;0.70;;;;;;;14.98;68.43;100228.91;5590055;31;33960;-67
2022/05/28 04:04:52;;;;;;;1.23;0.90;;;;;;;15.02;68.45;100230.16;5590079;31;33931;-67
2022/05/28 04:07:54;;;;;;;1.15;0.80;;;;;;;14.93;68.59;100226.00;5589367;31;33645;-67
2022/05/28 04:10:57;;;;;;;1.08;0.88;;;;;;;14.90;68.89;100228.25;5589962;31;34379;-66
2022/05/28 04:14:00;;;;;;;2.08;0.80;;;;;;;14.91;68.84;100225.38;5589206;31;33895;-66
2022/05/28 04:17:04;;;;;;;0.88;0.80;;;;;;;14.79;69.00;100211.78;5589915;31;34340;-66
2022/05/28 04:20:13;;;;;;;1.08;0.77;;;;;;;14.85;69.53;100225.38;5589792;31;34946;-67
2022/05/28 04:23:16;;;;;;;1.87;1.00;;;;;;;14.87;69.44;100234.00;5588598;31;34571;-66
2022/05/28 04:26:19;;;;;;;1.60;0.80;;;;;;;14.92;69.16;100228.88;5588998;31;34277;-67
2022/05/28 04:29:21;;;;;;;2.55;0.90;;;;;;;14.97;69.32;100224.59;5589716;31;34782;-66
2022/05/28 04:32:24;;;;;;;2.65;1.00;;;;;;;15.04;69.46;100209.41;5589723;31;33945;-67
2022/05/28 04:35:27;;;;;;;1.83;1.00;;;;;;;15.18;69.09;100213.78;5589974;31;33987;-67
2022/05/28 04:38:29;;;;;;;3.37;0.90;;;;;;;15.18;69.02;100219.13;5589615;31;34423;-67
2022/05/28 04:41:32;;;;;;;3.20;0.95;;;;;;;15.10;69.20;100229.97;5589897;31;34588;-67
2022/05/28 04:44:35;;;;;;;1.20;0.90;;;;;;;15.25;69.30;100224.47;5588922;31;34637;-67
2022/05/28 04:47:38;;;;;;;1.23;0.80;;;;;;;15.32;68.98;100237.84;5589550;31;35311;-67
2022/05/28 04:50:40;;;;;;;1.17;0.75;;;;;;;15.39;68.53;100247.53;5588771;31;33973;-67
2022/05/28 04:53:43;;;;;;;4.18;1.10;;;;;;;15.26;68.52;100249.34;5588758;31;34367;-66
2022/05/28 04:56:46;;;;;;;3.05;1.10;;;;;;;15.30;68.39;100253.28;5589345;31;34206;-66
2022/05/28 04:59:49;;;;;;;1.30;0.85;;;;;;;15.26;68.82;100258.19;5588646;31;34758;-66
2022/05/28 05:02:52;;;;;;;2.10;0.95;;;;;;;15.43;68.14;100242.62;5589557;31;35189;-67
2022/05/28 05:05:55;;;;;;;1.23;0.80;;;;;;;15.49;68.12;100247.97;5588678;31;33931;-67
2022/05/28 05:08:57;;;;;;;1.33;0.90;;;;;;;15.50;67.17;100257.63;5589550;31;33952;-67
2022/05/28 05:12:00;;;;;;;1.27;1.00;;;;;;;15.37;67.87;100248.75;5588546;31;33240;-67
2022/05/28 05:15:03;;;;;;;2.72;0.90;;;;;;;15.55;67.11;100241.00;5589180;31;35297;-67
2022/05/28 05:18:07;;;;;;;1.87;0.90;;;;;;;15.69;66.76;100260.56;5589276;31;34383;-67
2022/05/28 05:21:12;;;;;;;1.37;0.68;;;;;;;15.80;66.21;100259.97;5589264;31;34397;-67
2022/05/28 05:24:15;;;;;;;1.35;0.80;;;;;;;15.83;65.74;100251.56;5588848;31;35154;-67
2022/05/28 05:27:18;;;;;;;1.67;0.80;;;;;;;15.86;65.88;100256.50;5589049;31;34317;-67
2022/05/28 05:30:21;;;;;;;2.45;0.95;;;;;;;15.91;65.68;100243.31;5588837;31;34158;-67
2022/05/28 05:33:23;;;;;;;3.58;0.90;;;;;;;16.19;65.07;100251.94;5587395;31;34374;-66
2022/05/28 05:36:26;;;;;;;2.83;0.90;;;;;;;15.88;65.58;100252.56;5588666;31;34550;-66
2022/05/28 05:39:29;;;;;;;1.73;0.73;;;;;;;15.91;65.29;100262.88;5588682;31;33981;-65
2022/05/28 05:42:32;;;;;;;2.97;0.90;;;;;;;15.67;66.49;100266.12;5587955;31;34058;-66
2022/05/28 05:45:34;;;;;;;2.95;1.00;;;;;;;15.84;66.59;100255.84;5587933;31;32689;-66
2022/05/28 05:48:37;;;;;;;2.62;1.02;;;;;;;15.74;66.59;100252.75;5588059;31;34780;-67
2022/05/28 05:51:45;;;;;;;1.02;0.88;;;;;;;16.16;65.22;100256.91;5588495;31;33981;-66
2022/05/28 05:54:48;;;;;;;2.60;0.90;;;;;;;16.39;64.42;100254.59;5588411;31;34736;-66
2022/05/28 05:57:51;;;;;;;2.92;0.70;;;;;;;16.09;65.48;100249.69;5588742;31;34226;-67
2022/05/28 06:00:54;;;;;;;6.78;1.00;;;;;;;16.14;65.76;100254.41;5588214;31;34193;-67
2022/05/28 06:03:58;;;;;;;2.35;0.90;;;;;;;16.43;64.71;100251.31;5587463;31;34007;-66
2022/05/28 06:07:00;;;;;;;1.02;0.80;;;;;;;16.48;64.02;100239.97;5588010;31;34016;-67
2022/05/28 06:10:03;;;;;;;2.15;1.10;;;;;;;16.53;63.62;100243.66;5588059;31;34527;-66
2022/05/28 06:13:06;;;;;;;1.20;0.80;;;;;;;16.40;63.32;100248.22;5588204;31;34305;-66
2022/05/28 06:16:09;;;;;;;2.50;0.95;;;;;;;16.35;63.31;100234.66;5588140;31;33925;-65
2022/05/28 06:19:16;;;;;;;5.40;0.93;;;;;;;16.74;62.23;100231.06;5587826;31;34249;-66
2022/05/28 06:22:19;;;;;;;2.25;1.02;;;;;;;16.75;62.49;100222.00;5587596;31;33919;-67
2022/05/28 06:25:21;;;;;;;1.10;0.70;;;;;;;17.07;61.26;100233.63;5587703;31;34749;-65
2022/05/28 06:28:24;;;;;;;3.53;0.80;;;;;;;17.07;60.60;100245.16;5587835;31;34078;-67
2022/05/28 06:31:27;;;;;;;1.95;0.90;;;;;;;17.33;59.64;100244.22;5587136;31;35438;-67
2022/05/28 06:34:30;;;;;;;2.00;0.82;;;;;;;17.62;58.50;100232.91;5586397;31;33656;-66
2022/05/28 06:37:32;;;;;;;2.25;0.80;;;;;;;17.81;56.99;100228.44;5587612;31;33982;-67
2022/05/28 06:40:35;;;;;;;1.62;0.75;;;;;;;18.07;56.12;100240.81;5586251;31;33230;-68
2022/05/28 06:43:38;;;;;;;2.67;0.80;;;;;;;18.00;56.67;100240.87;5587141;31;35215;-67
2022/05/28 06:46:41;;;;;;;1.67;0.73;;;;;;;18.50;53.82;100238.94;5588581;31;33995;-67
2022/05/28 06:51:01;;;;;;;1.30;0.80;;;;;;;18.71;53.06;100239.59;5590528;31;34292;-68
2022/05/28 06:53:08;;;;;;;1.10;0.70;;;;;;;18.51;52.52;100237.91;5590118;31;34202;-66
2022/05/28 06:56:11;;;;;;;3.83;1.00;;;;;;;18.09;53.55;100231.50;5589123;31;32558;-66
2022/05/28 06:59:15;;;;;;;1.92;0.80;;;;;;;18.38;52.36;100245.28;5589504;31;34016;-67
2022/05/28 07:02:17;;;;;;;0.93;0.70;;;;;;;18.68;49.61;100235.50;5590191;31;34258;-66
2022/05/28 07:05:20;;;;;;;1.42;0.90;;;;;;;18.94;49.85;100226.28;5589745;31;34088;-66
2022/05/28 07:08:23;;;;;;;2.00;0.70;;;;;;;18.62;50.58;100228.31;5589206;31;33276;-67
2022/05/28 07:11:26;;;;;;;1.62;0.70;;;;;;;18.35;51.80;100245.75;5590138;31;35156;-67
2022/05/28 07:14:29;;;;;;;2.20;0.70;;;;;;;18.49;50.24;100249.94;5590041;31;34051;-67
2022/05/28 07:17:31;;;;;;;1.67;0.80;;;;;;;18.61;50.64;100251.69;5589455;31;32740;-67
2022/05/28 07:20:35;;;;;;;1.08;0.70;;;;;;;18.66;52.09;100251.00;5590051;31;33940;-67
2022/05/28 07:23:38;;;;;;;1.15;0.70;;;;;;;18.72;49.47;100246.63;5589709;31;34608;-67
2022/05/28 07:26:41;;;;;;;2.90;0.90;;;;;;;18.66;47.45;100253.69;5589473;31;34042;-67
2022/05/28 07:29:44;;;;;;;2.33;0.80;;;;;;;18.97;45.85;100258.94;5589483;31;34630;-67
2022/05/28 07:32:47;;;;;;;2.55;0.80;;;;;;;18.97;44.33;100266.19;5589372;31;34181;-67
2022/05/28 07:35:51;;;;;;;4.10;0.93;;;;;;;18.90;45.40;100254.66;5588663;31;33987;-67
2022/05/28 07:38:54;;;;;;;6.62;0.98;;;;;;;19.78;44.54;100263.03;5589387;31;35080;-67
2022/05/28 07:41:56;;;;;;;1.05;0.85;;;;;;;19.64;45.75;100275.03;5588663;31;32450;-68
2022/05/28 07:44:59;;;;;;;1.37;0.85;;;;;;;19.90;44.85;100264.69;5589385;31;34603;-67
2022/05/28 07:48:02;;;;;;;2.50;0.93;;;;;;;19.92;43.41;100270.66;5589295;31;34392;-67
2022/05/28 07:51:05;;;;;;;3.10;0.80;;;;;;;19.76;41.94;100265.09;5589576;31;34706;-67
2022/05/28 07:54:08;;;;;;;4.32;1.10;;;;;;;20.38;41.76;100271.81;5575409;31;34052;-67
2022/05/28 07:57:10;;;;;;;4.57;1.20;;;;;;;20.49;40.80;100273.66;5589187;31;34285;-65
2022/05/28 08:00:14;;;;;;;2.15;0.90;;;;;;;20.39;40.12;100271.56;5589151;31;34708;-65
2022/05/28 08:03:17;;;;;;;3.87;0.73;;;;;;;19.44;40.54;100264.56;5588870;31;34172;-66
2022/05/28 08:06:20;;;;;;;2.20;0.70;;;;;;;19.56;41.60;100264.59;5588471;31;34654;-67
2022/05/28 08:09:23;;;;;;;2.37;0.80;;;;;;;19.89;41.38;100275.69;5588255;31;34119;-67
2022/05/28 08:12:26;;;;;;;2.72;1.10;;;;;;;19.83;40.14;100277.44;5588726;31;35292;-67
2022/05/28 08:15:29;;;;;;;2.42;0.77;;;;;;;20.01;39.80;100279.22;5587712;31;33221;-67
2022/05/28 08:18:31;;;;;;;2.12;0.82;;;;;;;19.90;39.55;100283.53;5589203;31;33962;-67
2022/05/28 08:24:55;;;;;;;2.12;0.80;;;;;;;20.17;39.23;100283.09;5589485;31;33955;-66
2022/05/28 08:27:58;;;;;;;1.58;0.82;;;;;;;19.35;41.35;100277.47;5587579;31;32686;-67
2022/05/28 08:31:01;;;;;;;3.30;1.08;;;;;;;19.66;40.71;100276.44;5588820;31;34048;-68
2022/05/28 08:34:04;;;;;;;1.87;0.90;;;;;;;20.13;40.80;100272.00;5588366;31;34619;-66
2022/05/28 08:37:06;;;;;;;1.83;0.88;;;;;;;20.30;39.42;100264.88;5588117;31;34516;-66
2022/05/28 08:40:10;;;;;;;2.28;0.93;;;;;;;20.24;38.68;100264.94;5588542;31;34634;-67
2022/05/28 08:43:15;;;;;;;4.50;1.33;;;;;;;20.31;37.68;100279.16;5589208;31;34589;-66
2022/05/28 08:46:18;;;;;;;2.22;0.90;;;;;;;20.18;37.21;100284.75;5589342;31;33869;-66
2022/05/28 08:49:25;;;;;;;1.83;0.85;;;;;;;19.87;38.41;100286.69;5589448;31;33909;-66
2022/05/28 08:52:34;;;;;;;1.50;0.90;;;;;;;20.15;38.93;100285.19;5589256;31;34727;-66
2022/05/28 08:55:43;;;;;;;1.77;0.90;;;;;;;20.32;38.85;100284.34;5588516;31;33834;-67
2022/05/28 08:58:50;;;;;;;2.47;1.23;;;;;;;19.90;39.83;100277.31;5575601;31;33346;-66
2022/05/28 09:01:53;;;;;;;2.83;0.82;;;;;;;19.51;40.88;100282.22;5588732;31;34264;-67
2022/05/28 09:04:59;;;;;;;5.28;1.10;;;;;;;19.36;40.96;100265.69;5588970;31;34553;-66
2022/05/28 09:08:05;;;;;;;5.03;0.90;;;;;;;19.77;40.25;100258.69;5589007;31;33983;-67
2022/05/28 09:11:18;;;;;;;4.90;1.30;;;;;;;19.65;40.37;100266.75;5588588;31;33957;-66
2022/05/28 09:14:25;;;;;;;3.03;0.70;;;;;;;20.30;39.69;100259.47;5588949;31;34008;-68
2022/05/28 09:17:50;;;;;;;3.40;0.90;;;;;;;20.94;39.76;100263.06;5587419;31;33862;-67
2022/05/28 09:20:53;;;;;;;1.20;0.90;;;;;;;21.87;37.53;100256.47;5588323;31;34746;-67
2022/05/28 09:24:05;;;;;;;1.30;0.80;;;;;;;20.93;39.08;100256.00;5588135;31;33914;-65
2022/05/28 09:27:26;;;;;;;2.90;0.95;;;;;;;21.74;37.88;100260.28;5587271;31;32772;-67
2022/05/28 09:30:49;;;;;;;4.15;1.00;;;;;;;20.62;38.67;100259.94;5588087;31;34539;-65
2022/05/28 09:34:10;;;;;;;1.80;1.00;;;;;;;21.17;38.51;100256.78;5588208;31;35434;-66
2022/05/28 09:37:39;;;;;;;2.45;1.00;;;;;;;20.37;39.76;100257.50;5588184;31;34818;-66
2022/05/28 09:40:55;;;;;;;3.27;1.20;;;;;;;19.85;41.11;100251.09;5588363;31;33932;-65
2022/05/28 09:44:18;;;;;;;3.22;1.10;;;;;;;19.65;41.05;100255.16;5588223;31;35368;-66
2022/05/28 09:47:21;;;;;;;3.92;0.93;;;;;;;20.32;40.33;100248.50;5588309;31;33901;-67
2022/05/28 09:50:27;;;;;;;2.70;0.93;;;;;;;21.11;37.63;100255.03;5587780;31;34815;-68
2022/05/28 09:57:01;;;;;;;7.82;1.20;;;;;;;23.34;33.06;100267.50;5588619;31;33873;-67
2022/05/28 10:00:12;;;;;;;7.72;0.95;;;;;;;23.28;32.21;100266.66;5588080;31;34637;-68
2022/05/28 10:06:49;;;;;;;1.67;0.70;;;;;;;22.17;34.54;100267.00;5588329;31;34419;-67
2022/05/28 10:09:53;;;;;;;2.55;0.90;;;;;;;21.71;36.06;100258.09;5587528;31;34613;-67
2022/05/28 10:13:06;;;;;;;3.72;0.90;;;;;;;21.62;35.24;100265.75;5587780;31;34752;-67
2022/05/28 10:16:10;;;;;;;3.70;1.10;;;;;;;22.40;34.15;100258.69;5587930;31;34020;-67
2022/05/28 10:19:44;;;;;;;2.55;1.10;;;;;;;22.44;33.27;100244.44;5586971;31;34633;-65
2022/05/28 10:22:49;;;;;;;3.47;0.95;;;;;;;21.46;34.84;100250.34;5589008;31;34142;-66
2022/05/28 10:25:53;;;;;;;4.68;0.90;;;;;;;23.49;31.89;100237.91;5590120;31;34217;-67
2022/05/28 10:29:00;;;;;;;2.60;1.00;;;;;;;25.74;29.32;100237.03;5590346;31;35218;-66
2022/05/28 10:32:16;;;;;;;4.35;0.98;;;;;;;25.12;29.09;100246.12;5588626;31;32563;-67
2022/05/28 10:35:23;;;;;;;3.35;1.00;;;;;;;24.24;29.99;100237.78;5590203;31;34067;-66
2022/05/28 10:38:27;;;;;;;1.40;0.70;;;;;;;25.14;28.89;100238.50;5590333;31;34515;-66
2022/05/28 10:41:31;;;;;;;2.60;0.90;;;;;;;25.03;28.92;100237.66;5589981;31;34349;-66
2022/05/28 10:44:34;;;;;;;3.90;0.90;;;;;;;24.31;30.73;100236.72;5590159;31;33989;-68
2022/05/28 10:47:45;;;;;;;2.58;1.12;;;;;;;23.44;32.06;100237.81;5589893;31;34401;-68
2022/05/28 10:50:58;;;;;;;1.70;0.90;;;;;;;22.64;33.70;100238.50;5589714;31;34508;-66
2022/05/28 10:54:18;;;;;;;4.72;1.00;;;;;;;23.33;31.94;100242.31;5590032;31;34255;-67
2022/05/28 10:57:56;;;;;;;3.55;0.90;;;;;;;22.72;32.58;100229.12;5590433;31;34616;-66
2022/05/28 11:01:16;;;;;;;4.03;0.90;;;;;;;22.81;33.36;100227.63;5521256;31;32445;-66
2022/05/28 11:04:41;;;;;;;4.53;1.15;;;;;;;24.34;29.79;100236.19;5589539;31;32451;-68
2022/05/28 11:08:06;;;;;;;3.58;1.48;;;;;;;23.68;30.14;100227.50;5590414;31;34686;-66
2022/05/28 11:11:34;;;;;;;3.55;1.40;;;;;;;22.03;31.84;100215.16;5590107;31;34605;-66
2022/05/28 11:15:16;;;;;;;5.12;1.00;;;;;;;21.61;33.84;100222.81;5589751;31;34863;-66
2022/05/28 11:18:58;;;;;;;1.30;0.90;;;;;;;21.16;35.46;100215.50;5589878;31;34621;-65
2022/05/28 11:22:16;;;;;;;4.15;1.00;;;;;;;21.86;34.11;100220.53;5560813;31;34603;-65
2022/05/28 11:26:09;;;;;;;4.78;1.00;;;;;;;21.46;33.44;100217.13;5590308;31;33950;-67
2022/05/28 11:29:18;;;;;;;2.90;0.82;;;;;;;22.59;32.94;100208.69;5547238;31;32762;-67
2022/05/28 11:32:29;;;;;;;1.45;0.90;;;;;;;23.15;31.58;100203.94;5589341;31;33865;-65
2022/05/28 11:35:45;;;;;;;2.35;0.90;;;;;;;22.90;32.18;100199.06;5590336;31;34087;-66
2022/05/28 11:38:54;;;;;;;1.17;0.70;;;;;;;23.67;30.75;100191.47;5590121;31;34598;-67
2022/05/28 11:42:05;;;;;;;3.17;0.90;;;;;;;24.67;28.60;100190.56;5588704;31;32705;-67
2022/05/28 11:45:16;;;;;;;3.37;0.90;;;;;;;24.12;27.87;100190.19;5589592;31;33569;-66
2022/05/28 11:52:11;;;;;;;2.15;0.88;;;;;;;21.94;31.22;100185.03;5590034;31;34004;-65
2022/05/28 11:55:28;;;;;;;4.80;1.30;;;;;;;22.14;31.15;100189.09;5589967;31;35268;-66
2022/05/28 11:58:52;;;;;;;3.33;1.17;;;;;;;22.06;31.70;100179.56;5590047;31;34595;-67
2022/05/28 12:02:07;;;;;;;2.62;0.90;;;;;;;21.88;31.63;100183.28;5590071;31;34605;-65
2022/05/28 12:05:15;;;;;;;3.50;1.00;;;;;;;21.78;32.31;100174.22;5589811;31;34096;-66
2022/05/28 12:08:34;;;;;;;3.05;0.77;;;;;;;21.00;32.94;100172.28;5589829;31;34563;-66
2022/05/28 12:11:42;;;;;;;4.68;0.98;;;;;;;21.04;33.64;100168.84;5589239;31;34011;-66
2022/05/28 12:14:48;;;;;;;4.65;1.35;;;;;;;20.91;32.88;100173.72;5589212;31;34611;-65
2022/05/28 12:18:04;;;;;;;3.95;1.30;;;;;;;21.09;32.86;100173.53;5590294;31;33885;-65
2022/05/28 12:21:07;;;;;;;1.90;0.85;;;;;;;20.99;32.69;100170.62;5589516;31;34828;-64
2022/05/28 12:24:12;;;;;;;3.67;0.90;;;;;;;20.82;31.84;100163.31;5590034;31;33867;-64
2022/05/28 12:27:22;;;;;;;1.55;0.70;;;;;;;20.90;32.06;100161.28;5589939;31;34581;-64
2022/05/28 12:30:48;;;;;;;2.28;0.80;;;;;;;21.13;32.02;100164.75;5588842;31;34224;-65
2022/05/28 12:33:55;;;;;;;2.90;1.08;;;;;;;20.92;31.98;100159.16;5590081;31;34005;-65
2022/05/28 12:36:58;;;;;;;4.20;0.90;;;;;;;21.86;30.96;100155.72;5589733;31;34004;-65
2022/05/28 12:40:21;;;;;;;2.20;1.00;;;;;;;22.05;29.59;100164.41;5589712;31;33986;-64
2022/05/28 12:43:36;;;;;;;1.35;0.80;;;;;;;21.96;30.04;100152.37;5588666;31;34642;-65
2022/05/28 12:46:48;;;;;;;2.00;1.00;;;;;;;22.43;29.06;100147.34;5588989;31;33247;-65
2022/05/28 12:49:59;;;;;;;2.00;0.75;;;;;;;21.95;29.68;100148.87;5589708;31;33980;-64
2022/05/28 12:53:15;;;;;;;3.10;0.90;;;;;;;22.59;27.11;100143.78;5588983;31;34144;-66
2022/05/28 12:56:33;;;;;;;1.77;0.77;;;;;;;22.05;28.92;100143.62;5589451;31;35211;-65
2022/05/28 12:59:42;;;;;;;2.20;0.70;;;;;;;21.05;29.99;100138.13;5588569;31;32562;-66
2022/05/28 13:02:46;;;;;;;4.70;1.15;;;;;;;20.67;30.25;100132.56;5589345;31;34618;-65
2022/05/28 13:06:02;;;;;;;2.97;1.12;;;;;;;20.91;30.48;100149.47;5589685;31;34595;-65
2022/05/28 13:09:11;;;;;;;1.80;1.00;;;;;;;20.81;30.12;100125.81;5589277;31;34044;-65
2022/05/28 13:12:26;;;;;;;2.65;0.90;;;;;;;20.93;30.38;100134.66;5589338;31;34582;-66
2022/05/28 13:15:56;;;;;;;2.08;0.70;;;;;;;20.31;30.95;100125.59;5588644;31;32478;-67
2022/05/28 13:19:11;;;;;;;2.95;0.80;;;;;;;20.58;31.10;100120.47;5589092;31;34337;-65
2022/05/28 13:22:42;;;;;;;1.65;0.65;;;;;;;20.31;31.19;100120.22;5589144;31;34641;-66
2022/05/28 13:26:11;;;;;;;3.03;0.85;;;;;;;19.93;30.53;100120.69;5589074;31;34724;-66
2022/05/28 13:29:42;;;;;;;1.33;0.60;;;;;;;20.19;29.86;100111.28;5588953;31;34502;-66
2022/05/28 13:32:57;;;;;;;1.33;0.65;;;;;;;20.39;30.04;100117.12;5588653;31;34424;-65
2022/05/28 13:36:01;;;;;;;1.48;0.68;;;;;;;20.51;29.90;100122.50;5588937;31;33957;-64
2022/05/28 13:39:05;;;;;;;3.00;0.93;;;;;;;20.53;29.75;100131.16;5589089;31;35232;-66
2022/05/28 13:42:11;;;;;;;3.50;0.60;;;;;;;20.94;29.16;100117.44;5588678;31;34557;-65
2022/05/28 13:45:21;;;;;;;3.58;0.50;;;;;;;20.90;29.60;100120.84;5588592;31;33979;-66
2022/05/28 13:48:26;;;;;;;1.48;0.70;;;;;;;20.90;30.44;100116.28;5588759;31;33932;-65
2022/05/28 13:51:30;;;;;;;1.83;0.62;;;;;;;22.73;27.05;100119.91;5588577;31;34321;-66
2022/05/28 13:54:33;;;;;;;3.40;0.70;;;;;;;27.14;22.04;100120.75;5588612;31;34008;-66
2022/05/28 13:57:41;;;;;;;1.60;0.70;;;;;;;27.37;21.96;100104.78;5590977;31;34181;-66
2022/05/28 14:00:55;;;;;;;2.37;0.82;;;;;;;28.35;20.39;100104.38;5590057;31;33943;-67
2022/05/28 14:04:17;;;;;;;3.42;0.77;;;;;;;30.23;18.61;100117.53;5589702;31;34130;-66
2022/05/28 14:07:30;;;;;;;1.85;0.50;;;;;;;27.43;20.25;100098.19;5591262;31;34581;-66
2022/05/28 14:10:40;;;;;;;2.03;0.52;;;;;;;30.81;17.33;100113.34;5590930;31;33931;-67
2022/05/28 14:13:46;;;;;;;2.47;0.60;;;;;;;31.23;16.28;100092.91;5591066;31;35283;-66
2022/05/28 14:16:52;;;;;;;2.45;0.70;;;;;;;28.09;19.36;100099.19;5590218;31;33365;-67
2022/05/28 14:19:57;;;;;;;2.70;0.50;;;;;;;26.88;21.01;100102.94;5590168;31;32555;-67
2022/05/28 14:23:00;;;;;;;2.78;0.60;;;;;;;23.77;23.94;100096.75;5590310;31;34460;-66
2022/05/28 14:26:03;;;;;;;2.05;0.60;;;;;;;23.43;24.75;100091.91;5591087;31;34010;-65
2022/05/28 14:29:07;;;;;;;1.35;0.50;;;;;;;23.22;24.64;100090.91;5589909;31;32787;-65
2022/05/28 14:32:12;;;;;;;1.50;0.55;;;;;;;22.78;25.65;100099.16;5589720;31;34000;-64
2022/05/28 14:35:38;;;;;;;2.45;0.50;;;;;;;21.62;26.33;100097.56;5589912;31;33923;-64
2022/05/28 14:38:41;;;;;;;3.70;0.73;;;;;;;20.79;25.91;100084.78;5590254;31;34292;-65
2022/05/28 14:41:50;;;;;;;0.93;0.40;;;;;;;20.93;25.92;100096.91;5590663;31;34630;-66
2022/05/28 14:44:53;;;;;;;1.35;0.40;;;;;;;21.37;24.99;100106.06;5590553;31;34031;-65
2022/05/28 14:48:00;;;;;;;2.15;0.45;;;;;;;21.57;24.02;100098.31;5590620;31;33981;-66